Home > Products > Valid Products > TAF

000
FTUS43 KBIS 172300
TAFJMS
TAF
KJMS 172327Z 1800/1824 06005KT P6SM SKC
     FM180600 09007KT P6SM SKC
     FM181200 13008KT P6SM SKC
     FM181800 16017G24KT P6SM SCT130=



000
FTUS43 KBIS 172300
TAFBIS
TAF
KBIS 172327Z 1800/1824 11007KT P6SM SCT250
     FM181700 16018G27KT P6SM SCT140=



000
FTUS43 KBIS 172300
TAFMOT
TAF
KMOT 172327Z 1800/1824 06008KT P6SM SKC
     FM180600 11006KT P6SM SKC
     FM181100 14008KT P6SM SCT025
     FM181700 16017G26KT P6SM SCT130=



000
FTUS43 KBIS 172300
TAFISN
TAF
KISN 172327Z 1800/1824 15007KT P6SM SKC
     FM181700 17014KT P6SM SCT120=



000
FTUS43 KBIS 172300
TAFDIK
TAF
KDIK 172327Z 1800/1824 11009KT P6SM SKC
     FM180900 15011KT P6SM SCT150
     FM181700 17017G26KT P6SM SCT130=



000
FTUS43 KBIS 171700
TAFMOT
TAF
KMOT 171733Z 1718/1818 06004KT P6SM SKC
     FM180900 14008KT P6SM SCT025
     FM181400 15017G25KT P6SM SCT130=



000
FTUS43 KBIS 171700
TAFJMS
TAF
KJMS 171733Z 1718/1818 32005KT P6SM SKC
     FM172200 08007KT P6SM FEW250
     FM181400 16010KT P6SM SCT110=



000
FTUS43 KBIS 171700
TAFBIS
TAF
KBIS 171733Z 1718/1818 10006KT P6SM SKC
     FM181700 16018G27KT P6SM SCT140=



000
FTUS43 KBIS 171700
TAFISN
TAF
KISN 171733Z 1718/1818 15004KT P6SM SKC
     FM181500 15010KT P6SM SCT120=



000
FTUS43 KBIS 171700
TAFDIK
TAF
KDIK 171733Z 1718/1818 11009KT P6SM SKC
     FM180900 16011KT P6SM SCT150
     FM181700 17017G26KT P6SM SCT130=



000
FTUS43 KBIS 171100
TAFDIK
TAF
KDIK 171120Z 1712/1812 12005KT P6SM FEW250
     FM171800 13012G18KT P6SM SCT150=



000
FTUS43 KBIS 171100
TAFJMS
TAF
KJMS 171120Z 1712/1812 VRB03KT P6SM FEW250
     FM171600 09008KT P6SM FEW250=



000
FTUS43 KBIS 171100
TAFMOT
TAF
KMOT 171120Z 1712/1812 VRB03KT P6SM SKC
     FM171600 10009KT P6SM FEW250=



000
FTUS43 KBIS 171100
TAFISN
TAF
KISN 171120Z 1712/1812 VRB03KT P6SM SKC
     FM171700 12008KT P6SM FEW250=



000
FTUS43 KBIS 171100
TAFBIS
TAF
KBIS 171120Z 1712/1812 VRB03KT P6SM SKC
     FM171700 11008KT P6SM FEW250=



000
FTUS43 KBIS 170500
TAFJMS
TAF
KJMS 170528Z 1706/1806 VRB03KT P6SM FEW250
     FM171600 08008KT P6SM FEW250=



000
FTUS43 KBIS 170500
TAFBIS
TAF
KBIS 170528Z 1706/1806 VRB03KT P6SM SKC
     FM171700 11008KT P6SM FEW250=



000
FTUS43 KBIS 170500
TAFMOT
TAF
KMOT 170528Z 1706/1806 VRB03KT P6SM SKC
     FM171600 10009KT P6SM FEW250=



000
FTUS43 KBIS 170500
TAFDIK
TAF
KDIK 170528Z 1706/1806 12005KT P6SM FEW250
     FM171800 13012G18KT P6SM SCT150=



000
FTUS43 KBIS 170500
TAFISN
TAF
KISN 170528Z 1706/1806 VRB03KT P6SM SKC
     FM171700 12008KT P6SM FEW250=



000
FTUS43 KBIS 162300
TAFMOT
TAF
KMOT 162331Z 1700/1724 VRB03KT P6SM SKC
     FM171500 02006KT P6SM FEW250=



000
FTUS43 KBIS 162300
TAFBIS
TAF
KBIS 162331Z 1700/1724 VRB03KT P6SM SKC
     FM171700 08007KT P6SM FEW250=



000
FTUS43 KBIS 162300
TAFISN
TAF
KISN 162331Z 1700/1724 VRB03KT P6SM SKC
     FM171700 12008KT P6SM FEW250=



000
FTUS43 KBIS 162300
TAFJMS
TAF
KJMS 162331Z 1700/1724 14004KT P6SM SKC
     FM170500 VRB03KT P6SM FEW240
     FM171500 03006KT P6SM FEW250=



000
FTUS43 KBIS 162300
TAFDIK
TAF
KDIK 162331Z 1700/1724 05005KT P6SM SKC
     FM170900 11004KT P6SM FEW250=



000
FTUS43 KBIS 161700
TAFDIK
TAF
KDIK 161723Z 1618/1718 13004KT P6SM SKC=



000
FTUS43 KBIS 161700
TAFISN
TAF
KISN 161723Z 1618/1718 12004KT P6SM SKC=



000
FTUS43 KBIS 161700
TAFMOT
TAF
KMOT 161723Z 1618/1718 21004KT P6SM SKC
     FM171400 33006KT P6SM FEW250=



000
FTUS43 KBIS 161700
TAFBIS
TAF
KBIS 161723Z 1618/1718 11003KT P6SM SKC=



000
FTUS43 KBIS 161700
TAFJMS
TAF
KJMS 161723Z 1618/1718 19010KT P6SM SKC
     FM170200 VRB03KT P6SM FEW250=



000
FTUS43 KBIS 161100
TAFJMS
TAF
KJMS 161120Z 1612/1712 VRB04KT P6SM SKC=



000
FTUS43 KBIS 161100
TAFMOT
TAF
KMOT 161120Z 1612/1712 VRB04KT P6SM SKC=



000
FTUS43 KBIS 161100
TAFBIS
TAF
KBIS 161120Z 1612/1712 VRB04KT P6SM SKC=



000
FTUS43 KBIS 161100
TAFDIK
TAF
KDIK 161120Z 1612/1712 VRB04KT P6SM SKC=



000
FTUS43 KBIS 161100
TAFISN
TAF
KISN 161120Z 1612/1712 VRB03KT P6SM SKC=



000
FTUS43 KBIS 160500
TAFISN
TAF
KISN 160528Z 1606/1706 VRB03KT P6SM SKC=



000
FTUS43 KBIS 160500
TAFJMS
TAF
KJMS 160528Z 1606/1706 21008KT P6SM SKC
     FM161600 17004KT P6SM FEW250=



000
FTUS43 KBIS 160500
TAFMOT
TAF
KMOT 160528Z 1606/1706 22005KT P6SM SKC=



000
FTUS43 KBIS 160500
TAFBIS
TAF
KBIS 160528Z 1606/1706 13004KT P6SM SKC=



000
FTUS43 KBIS 160500
TAFDIK
TAF
KDIK 160528Z 1606/1706 18006KT P6SM SKC
     FM161300 VRB03KT P6SM FEW250=



000
FTUS43 KBIS 152300
TAFJMS
TAF
KJMS 152328Z 1600/1624 25008KT P6SM SKC
     FM162200 17004KT P6SM FEW250=



000
FTUS43 KBIS 152300
TAFBIS
TAF
KBIS 152328Z 1600/1624 22007KT P6SM SKC
     FM160800 18003KT P6SM SKC=



000
FTUS43 KBIS 152300
TAFMOT
TAF
KMOT 152328Z 1600/1624 22006KT P6SM FEW160=



000
FTUS43 KBIS 152300
TAFDIK
TAF
KDIK 152328Z 1600/1624 19007KT P6SM SKC
     FM161600 VRB03KT P6SM FEW250=



000
FTUS43 KBIS 152300
TAFISN
TAF
KISN 152328Z 1600/1624 21006KT P6SM SKC
     FM160400 VRB03KT P6SM SKC=



000
FTUS43 KBIS 151700
TAFDIK
TAF
KDIK 151728Z 1518/1618 21008KT P6SM SKC
     FM160300 18005KT P6SM SKC=



000
FTUS43 KBIS 151700
TAFJMS
TAF
KJMS 151728Z 1518/1618 24005KT P6SM SKC=



000
FTUS43 KBIS 151700
TAFBIS
TAF
KBIS 151728Z 1518/1618 23008KT P6SM SKC=



000
FTUS43 KBIS 151700
TAFISN
TAF
KISN 151728Z 1518/1618 19007KT P6SM SKC=



000
FTUS43 KBIS 151700
TAFMOT
TAF
KMOT 151728Z 1518/1618 25011KT P6SM SKC
     FM160100 23004KT P6SM SKC=



000
FTUS43 KBIS 151600 AAA
TAFMOT
TAF AMD
KMOT 151613Z 1516/1612 24015G20KT P6SM FEW160
     FM160100 23004KT P6SM SKC=



000
FTUS43 KBIS 151100
TAFMOT
TAF
KMOT 151136Z 1512/1612 22006KT P6SM SKC
     FM151900 25011KT P6SM FEW160
     FM160100 23004KT P6SM SKC=



000
FTUS43 KBIS 151100
TAFDIK
TAF
KDIK 151136Z 1512/1612 20008KT P6SM SKC
     FM151500 22010KT P6SM FEW230
     FM160300 18005KT P6SM SKC=



000
FTUS43 KBIS 151100
TAFISN
TAF
KISN 151136Z 1512/1612 VRB03KT P6SM SKC
     FM151500 23006KT P6SM FEW070
     FM160100 VRB03KT P6SM SKC=



000
FTUS43 KBIS 151100
TAFJMS
TAF
KJMS 151136Z 1512/1612 VRB03KT P6SM SCT080
     FM151600 28007KT P6SM FEW140
     FM160100 VRB04KT P6SM SKC=



000
FTUS43 KBIS 151100
TAFBIS
TAF
KBIS 151136Z 1512/1612 VRB03KT P6SM SCT080
     FM151900 25007KT P6SM FEW110
     FM160100 VRB03KT P6SM SKC=



000
FTUS43 KBIS 150500
TAFBIS
TAF
KBIS 150529Z 1506/1606 VRB03KT P6SM SKC
     FM151900 25007KT P6SM FEW110=



000
FTUS43 KBIS 150500
TAFISN
TAF
KISN 150529Z 1506/1606 VRB03KT P6SM SKC
     FM151500 23006KT P6SM FEW070=



000
FTUS43 KBIS 150500
TAFJMS
TAF
KJMS 150529Z 1506/1606 33003KT P6SM OVC070
     FM150800 VRB03KT P6SM FEW080
     FM151600 28007KT P6SM FEW140=



000
FTUS43 KBIS 150500
TAFMOT
TAF
KMOT 150529Z 1506/1606 22005KT P6SM SKC
     FM151900 25011KT P6SM FEW160
     FM160000 23004KT P6SM SKC=



000
FTUS43 KBIS 150500
TAFDIK
TAF
KDIK 150529Z 1506/1606 VRB03KT P6SM FEW070
     FM151400 22006KT P6SM FEW230=



    US Dept of Commerce
    National Oceanic and Atmospheric Administration
    National Weather Service
    1325 East West Highway
    Silver Spring, MD 20910
    Page Author: NWS Internet Services Team
Disclaimer
Information Quality
Credits
Glossary
Privacy Policy
Freedom of Information Act (FOIA)
About Us
Career Opportunities